Time;durP1;ratioP1;P1;durP2;ratioP2;P2;SDS_P1;SDS_P2;PMS_P1;PMS_P2;Temp;Humidity;BMP_temperature;BMP_pressure;BME280_temperature;BME280_humidity;BME280_pressure;Samples;Min_cycle;Max_cycle;Signal;HPM_P1;HPM_P2
2021/03/30 00:00:47;;;;;;;59.60;39.55;;;;;;;7.76;66.62;100861.10;1764963;81;21159;-43
2021/03/30 00:03:16;;;;;;;56.75;38.92;;;;;;;7.73;66.58;100863.62;1765004;81;20945;-43
2021/03/30 00:05:44;;;;;;;58.35;38.73;;;;;;;7.75;66.64;100865.45;1764843;80;21242;-43
2021/03/30 00:08:14;;;;;;;61.18;39.23;;;;;;;7.81;66.30;100862.34;1764859;81;21008;-43
2021/03/30 00:10:44;;;;;;;59.45;39.53;;;;;;;7.79;66.16;100865.11;1764947;81;21063;-43
2021/03/30 00:13:13;;;;;;;56.65;39.13;;;;;;;7.79;66.08;100861.06;1759852;81;21457;-43
2021/03/30 00:15:41;;;;;;;59.75;38.73;;;;;;;7.81;65.89;100862.89;1764863;81;21194;-43
2021/03/30 00:18:09;;;;;;;62.08;39.70;;;;;;;7.82;65.75;100867.19;1764935;81;21365;-43
2021/03/30 00:20:37;;;;;;;60.00;38.90;;;;;;;7.82;65.56;100869.89;1764834;81;21028;-43
2021/03/30 00:23:06;;;;;;;60.40;39.25;;;;;;;7.83;65.46;100865.55;1764891;81;21103;-43
2021/03/30 00:25:33;;;;;;;59.53;39.05;;;;;;;7.82;65.41;100862.59;1764787;80;21182;-43
2021/03/30 00:28:02;;;;;;;62.00;40.25;;;;;;;7.82;65.41;100864.48;1764961;81;21130;-43
2021/03/30 00:30:31;;;;;;;56.42;38.80;;;;;;;7.79;65.34;100868.58;1764812;81;21274;-43
2021/03/30 00:32:59;;;;;;;52.25;36.03;;;;;;;7.78;65.12;100872.41;1764838;81;21134;-44
2021/03/30 00:35:27;;;;;;;59.73;36.68;;;;;;;7.80;64.98;100869.38;1764942;81;21135;-43
2021/03/30 00:37:55;;;;;;;52.55;35.25;;;;;;;7.82;64.57;100873.94;1764901;81;21114;-43
2021/03/30 00:40:22;;;;;;;50.25;33.63;;;;;;;7.83;64.50;100872.84;1764873;81;21561;-43
2021/03/30 00:42:55;;;;;;;49.50;33.75;;;;;;;7.85;64.21;100874.67;1764931;81;21355;-43
2021/03/30 00:45:23;;;;;;;53.23;33.35;;;;;;;7.83;63.92;100869.59;1759571;79;21064;-43
2021/03/30 00:47:51;;;;;;;52.50;34.15;;;;;;;7.80;63.43;100860.73;1764930;80;21442;-43
2021/03/30 00:50:22;;;;;;;54.88;34.58;;;;;;;7.74;63.52;100867.37;1744073;81;21590;-43
2021/03/30 00:52:51;;;;;;;58.87;35.75;;;;;;;7.73;63.55;100867.12;1765260;81;21582;-43
2021/03/30 00:55:33;;;;;;;53.87;33.98;;;;;;;7.72;63.62;100866.06;1746306;81;21374;-43
2021/03/30 00:58:02;;;;;;;51.55;33.58;;;;;;;7.70;63.70;100863.66;1765013;80;21186;-43
2021/03/30 01:00:30;;;;;;;56.65;34.90;;;;;;;7.73;63.70;100870.36;1728382;83;21134;-43
2021/03/30 01:02:58;;;;;;;49.33;33.98;;;;;;;7.78;63.60;100866.20;1708072;84;21111;-43
2021/03/30 01:05:28;;;;;;;54.35;35.70;;;;;;;7.79;63.40;100863.18;1765020;80;21135;-43
2021/03/30 01:08:26;;;;;;;49.27;32.42;;;;;;;7.78;63.13;100860.80;1765001;80;22233;-43
2021/03/30 01:11:23;;;;;;;54.27;35.05;;;;;;;7.71;63.19;100864.45;1728302;83;21584;-43
2021/03/30 01:14:02;;;;;;;51.85;33.02;;;;;;;7.64;63.17;100866.23;1697798;84;21202;-43
2021/03/30 01:16:43;;;;;;;54.30;33.70;;;;;;;7.64;63.01;100861.39;1697708;84;21202;-43
2021/03/30 01:19:44;;;;;;;54.50;35.35;;;;;;;7.66;62.90;100867.27;1697650;84;21174;-43
2021/03/30 01:22:51;;;;;;;51.58;34.23;;;;;;;7.66;62.84;100868.62;1707904;84;21264;-43
2021/03/30 01:25:19;;;;;;;53.78;33.63;;;;;;;7.63;62.90;100865.19;1728204;83;21059;-43
2021/03/30 01:28:05;;;;;;;51.80;32.88;;;;;;;7.64;62.82;100868.14;1728472;83;21623;-43
2021/03/30 01:30:34;;;;;;;56.00;32.80;;;;;;;7.68;62.85;100864.53;1707943;84;21158;-43
2021/03/30 01:33:08;;;;;;;50.55;32.67;;;;;;;7.74;62.76;100868.72;1708023;84;21215;-43
2021/03/30 01:35:37;;;;;;;52.38;32.28;;;;;;;7.78;62.66;100867.01;1765061;81;21193;-43
2021/03/30 01:38:05;;;;;;;54.95;32.78;;;;;;;7.80;62.68;100879.63;1765126;80;21605;-43
2021/03/30 01:40:34;;;;;;;54.40;33.00;;;;;;;7.82;62.69;100882.84;1728470;82;21597;-43
2021/03/30 01:43:03;;;;;;;53.87;33.28;;;;;;;7.82;62.53;100889.59;1708353;82;21598;-43
2021/03/30 01:45:32;;;;;;;51.30;32.53;;;;;;;7.82;62.36;100889.59;1708322;83;21190;-43
2021/03/30 01:48:01;;;;;;;48.42;31.37;;;;;;;7.81;62.35;100889.88;1728305;83;21715;-43
2021/03/30 01:50:30;;;;;;;51.23;31.77;;;;;;;7.80;62.43;100889.08;1708043;84;21170;-43
2021/03/30 01:52:58;;;;;;;50.63;33.33;;;;;;;7.79;62.38;100892.88;1764989;81;21171;-43
2021/03/30 01:55:27;;;;;;;51.58;34.18;;;;;;;7.77;62.33;100884.30;1728336;83;21561;-43
2021/03/30 01:57:56;;;;;;;52.87;33.80;;;;;;;7.75;62.29;100883.80;1688222;84;21174;-43
2021/03/30 02:00:27;;;;;;;47.78;32.85;;;;;;;7.73;62.26;100885.21;1707973;83;21376;-43
2021/03/30 02:02:55;;;;;;;57.30;35.10;;;;;;;7.67;62.33;100880.47;1688291;84;21190;-43
2021/03/30 02:05:24;;;;;;;53.38;35.40;;;;;;;7.61;62.16;100880.87;1769650;80;21143;-43
2021/03/30 02:07:56;;;;;;;56.13;34.45;;;;;;;7.49;62.25;100881.95;1739257;82;21137;-43
2021/03/30 02:13:24;;;;;;;48.98;31.97;;;;;;;7.39;62.54;100878.36;1783049;79;22744;-42
2021/03/30 02:15:59;;;;;;;50.23;32.20;;;;;;;7.35;62.39;100882.77;1756805;81;20983;-43
2021/03/30 02:18:31;;;;;;;54.45;32.42;;;;;;;7.32;62.34;100884.70;1756728;81;21375;-42
2021/03/30 02:21:02;;;;;;;46.28;31.10;;;;;;;7.32;62.21;100881.20;1756657;81;21046;-43
2021/03/30 02:23:34;;;;;;;47.85;31.48;;;;;;;7.28;62.16;100882.36;1756759;81;21165;-42
2021/03/30 02:26:02;;;;;;;46.95;30.80;;;;;;;7.26;62.11;100884.54;1756762;81;21604;-42
2021/03/30 02:28:39;;;;;;;46.30;32.23;;;;;;;7.22;62.02;100883.55;1756658;81;21058;-42
2021/03/30 02:31:04;;;;;;;48.30;31.23;;;;;;;7.18;61.99;100882.55;1756245;81;21241;-43
2021/03/30 02:33:32;;;;;;;52.38;33.85;;;;;;;7.12;62.00;100882.94;1727601;81;21051;-42
2021/03/30 02:36:00;;;;;;;48.02;31.20;;;;;;;7.01;62.22;100883.70;1756717;81;20997;-42
2021/03/30 02:38:30;;;;;;;49.35;31.55;;;;;;;6.83;62.59;100877.81;1756624;81;21149;-42
2021/03/30 02:40:59;;;;;;;;;;;;;;;6.66;63.10;100879.75;1759400;81;21209;-42
2021/03/30 02:43:27;;;;;;;50.48;30.88;;;;;;;6.49;63.53;100878.94;1762741;80;21252;-42
2021/03/30 02:45:55;;;;;;;50.67;29.82;;;;;;;6.33;64.14;100877.61;1787902;80;21161;-42
2021/03/30 02:48:24;;;;;;;47.08;30.97;;;;;;;6.33;64.42;100878.95;1787877;80;20988;-42
2021/03/30 02:50:53;;;;;;;49.95;31.45;;;;;;;6.29;64.64;100879.84;1787873;80;21330;-42
2021/03/30 02:53:21;;;;;;;48.05;31.77;;;;;;;6.25;64.75;100874.22;1757574;80;21437;-43
2021/03/30 02:55:49;;;;;;;51.65;31.52;;;;;;;6.20;64.86;100871.60;1787760;80;23501;-42
2021/03/30 02:58:18;;;;;;;48.33;31.93;;;;;;;6.15;64.93;100868.98;1757848;80;21633;-43
2021/03/30 03:00:46;;;;;;;46.83;30.72;;;;;;;6.09;65.09;100872.33;1787972;80;21601;-42
2021/03/30 03:03:14;;;;;;;45.48;30.52;;;;;;;6.00;65.34;100867.90;1787853;80;21557;-42
2021/03/30 03:05:43;;;;;;;43.45;28.95;;;;;;;5.99;65.39;100861.71;1787961;80;21182;-42
2021/03/30 03:08:11;;;;;;;43.77;30.30;;;;;;;6.01;65.37;100864.89;1788117;80;21351;-42
2021/03/30 03:10:39;;;;;;;45.70;30.62;;;;;;;6.00;65.46;100865.98;1787694;80;21161;-42
2021/03/30 03:13:07;;;;;;;50.10;30.55;;;;;;;5.99;65.59;100860.91;1776728;80;21179;-42
2021/03/30 03:15:36;;;;;;;51.95;33.02;;;;;;;6.00;65.71;100864.63;1774273;80;21143;-42
2021/03/30 03:18:05;;;;;;;49.00;31.27;;;;;;;5.97;65.87;100869.81;1774257;80;21170;-42
2021/03/30 03:20:33;;;;;;;45.37;30.07;;;;;;;5.97;66.02;100873.84;1774508;80;21190;-42
2021/03/30 03:23:03;;;;;;;51.55;31.02;;;;;;;6.00;66.08;100864.63;1774051;80;21043;-42
2021/03/30 03:25:31;;;;;;;53.60;34.08;;;;;;;6.02;66.18;100863.00;1751827;80;21156;-43
2021/03/30 03:28:03;;;;;;;57.48;35.43;;;;;;;6.02;66.45;100868.39;1773725;80;21167;-42
2021/03/30 03:30:32;;;;;;;57.58;37.93;;;;;;;6.03;66.56;100868.11;1773725;80;21708;-42
2021/03/30 03:33:11;;;;;;;62.65;39.40;;;;;;;6.06;66.66;100875.59;1773767;80;21191;-42
2021/03/30 03:35:42;;;;;;;59.48;35.75;;;;;;;6.08;66.70;100878.80;1773590;80;21424;-42
2021/03/30 03:38:13;;;;;;;56.83;35.10;;;;;;;6.12;66.70;100881.70;1752119;80;21150;-42
2021/03/30 03:40:41;;;;;;;54.48;35.48;;;;;;;6.20;66.60;100883.72;1773770;80;21163;-42
2021/03/30 03:43:09;;;;;;;60.38;36.65;;;;;;;6.25;66.35;100886.34;1771517;80;21162;-42
2021/03/30 03:45:38;;;;;;;45.67;28.57;;;;;;;6.27;66.21;100890.90;1709694;83;21076;-42
2021/03/30 03:48:07;;;;;;;56.35;35.52;;;;;;;6.29;65.86;100891.95;1709645;83;21164;-42
2021/03/30 03:50:35;;;;;;;59.90;36.50;;;;;;;6.30;65.80;100888.95;1743120;82;21175;-42
2021/03/30 03:53:03;;;;;;;56.55;36.45;;;;;;;6.30;65.77;100892.98;1742923;82;21174;-42
2021/03/30 03:55:31;;;;;;;56.88;34.27;;;;;;;6.29;65.61;100896.80;1722130;82;21183;-42
2021/03/30 03:58:02;;;;;;;53.23;34.15;;;;;;;6.32;65.48;100892.16;1743096;82;21340;-42
2021/03/30 04:00:31;;;;;;;54.55;35.55;;;;;;;6.38;65.26;100895.58;1743062;82;21843;-42
2021/03/30 04:03:19;;;;;;;56.33;35.70;;;;;;;6.40;65.01;100896.07;1709731;83;22180;-42
2021/03/30 04:06:14;;;;;;;56.13;36.42;;;;;;;6.44;64.93;100894.38;1743010;82;21201;-42
2021/03/30 04:08:51;;;;;;;60.23;37.35;;;;;;;6.42;64.93;100902.78;1743070;82;21123;-42
2021/03/30 04:11:18;;;;;;;61.25;37.48;;;;;;;6.39;65.08;100898.53;1742958;82;22401;-42
2021/03/30 04:13:47;;;;;;;57.53;35.98;;;;;;;6.37;65.01;100897.47;1719515;83;21163;-42
2021/03/30 04:16:15;;;;;;;53.50;35.83;;;;;;;6.41;65.02;100903.06;1664693;84;22228;-42
2021/03/30 04:18:43;;;;;;;58.75;35.88;;;;;;;6.48;64.92;100901.61;1689943;84;21487;-42
2021/03/30 04:21:30;;;;;;;57.00;37.05;;;;;;;6.51;64.91;100903.70;1689893;84;21191;-42
2021/03/30 04:23:59;;;;;;;61.08;37.60;;;;;;;6.54;64.82;100909.84;1720329;83;21234;-42
2021/03/30 04:26:30;;;;;;;55.85;36.98;;;;;;;6.53;64.73;100911.50;1689893;84;21135;-42
2021/03/30 04:28:58;;;;;;;58.38;37.13;;;;;;;6.53;64.81;100911.50;1689923;84;21629;-42
2021/03/30 04:31:26;;;;;;;56.05;35.08;;;;;;;6.52;64.80;100915.28;1689806;84;21204;-42
2021/03/30 04:33:53;;;;;;;59.67;37.17;;;;;;;6.53;64.94;100915.55;1689942;84;21190;-42
2021/03/30 04:37:46;;;;;;;57.62;35.73;;;;;;;6.64;64.75;100919.65;1847078;77;22766;-42
2021/03/30 04:40:17;;;;;;;56.80;37.23;;;;;;;6.60;64.78;100925.92;1753276;81;21000;-42
2021/03/30 04:42:45;;;;;;;57.93;37.50;;;;;;;6.63;64.66;100922.66;1771346;81;21370;-42
2021/03/30 04:45:14;;;;;;;63.15;39.10;;;;;;;6.64;64.60;100928.28;1749513;81;21054;-42
2021/03/30 04:47:42;;;;;;;47.90;31.12;;;;;;;6.65;64.65;100926.65;1749407;82;20993;-42
2021/03/30 04:50:12;;;;;;;54.40;35.25;;;;;;;6.66;64.70;100924.75;1749207;82;21054;-42
2021/03/30 04:52:39;;;;;;;54.20;34.95;;;;;;;6.71;64.52;100921.98;1749366;82;21029;-42
2021/03/30 04:55:09;;;;;;;56.37;34.25;;;;;;;6.81;64.29;100927.20;1749212;82;21429;-42
2021/03/30 04:57:36;;;;;;;57.15;35.23;;;;;;;6.85;63.93;100932.24;1749177;82;21064;-42
2021/03/30 05:00:06;;;;;;;54.18;35.35;;;;;;;6.88;63.75;100934.34;1749223;82;21624;-42
2021/03/30 05:02:34;;;;;;;57.40;35.85;;;;;;;6.90;63.71;100927.56;1749425;82;26674;-42
2021/03/30 05:05:05;;;;;;;52.48;34.40;;;;;;;6.91;63.46;100927.83;1749154;82;21145;-42
2021/03/30 05:07:33;;;;;;;54.23;35.92;;;;;;;6.93;63.46;100936.95;1749417;82;22327;-42
2021/03/30 05:10:01;;;;;;;58.60;36.98;;;;;;;6.94;63.44;100934.51;1749138;82;21434;-42
2021/03/30 05:12:29;;;;;;;53.90;33.85;;;;;;;6.98;63.51;100939.55;1749141;82;21424;-42
2021/03/30 05:14:57;;;;;;;52.70;34.03;;;;;;;7.07;63.45;100937.00;1749192;82;21179;-42
2021/03/30 05:17:27;;;;;;;51.95;33.78;;;;;;;7.16;63.29;100934.66;1749235;82;21094;-42
2021/03/30 05:19:55;;;;;;;54.10;34.27;;;;;;;7.26;63.09;100934.45;1749184;82;21339;-42
2021/03/30 05:22:24;;;;;;;49.90;34.50;;;;;;;7.32;63.06;100937.84;1749155;81;21173;-42
2021/03/30 05:24:52;;;;;;;50.85;32.80;;;;;;;7.42;62.91;100934.95;1749167;82;21002;-42
2021/03/30 05:27:20;;;;;;;51.83;33.02;;;;;;;7.51;62.59;100931.80;1749176;81;21031;-42
2021/03/30 05:29:48;;;;;;;52.70;33.83;;;;;;;7.61;62.16;100930.80;1749218;82;21141;-43
2021/03/30 05:32:18;;;;;;;52.78;32.83;;;;;;;7.72;61.84;100924.91;1719312;83;21216;-42
2021/03/30 05:34:48;;;;;;;51.88;32.98;;;;;;;7.84;61.19;100932.50;1739820;82;21181;-43
2021/03/30 05:37:16;;;;;;;52.43;32.17;;;;;;;7.93;59.71;100933.92;1738622;82;22236;-43
2021/03/30 05:39:44;;;;;;;46.28;30.23;;;;;;;7.90;59.79;100929.11;1800730;79;21123;-43
2021/03/30 05:42:16;;;;;;;50.33;32.00;;;;;;;7.86;59.20;100925.68;1800745;79;21613;-42
2021/03/30 05:44:44;;;;;;;46.05;30.48;;;;;;;7.85;58.94;100927.32;1733596;81;21339;-42
2021/03/30 05:47:15;;;;;;;51.25;30.68;;;;;;;7.80;59.15;100932.28;1738357;82;21613;-42
2021/03/30 05:49:44;;;;;;;;;;;;;;;7.80;58.83;100924.73;1740662;82;21160;-43
2021/03/30 05:52:19;;;;;;;49.03;29.87;;;;;;;7.78;58.35;100924.25;1738188;82;20258;-42
2021/03/30 05:54:48;;;;;;;44.25;28.73;;;;;;;7.68;58.79;100919.06;1738088;82;21130;-42
2021/03/30 05:57:17;;;;;;;41.70;27.20;;;;;;;7.72;58.38;100926.80;1738121;82;21255;-42
2021/03/30 05:59:51;;;;;;;42.83;27.13;;;;;;;7.74;57.78;100928.11;1738020;82;21439;-42
2021/03/30 06:02:24;;;;;;;35.28;24.37;;;;;;;7.78;57.06;100926.41;1737979;82;21142;-42
2021/03/30 06:04:51;;;;;;;36.60;23.75;;;;;;;7.83;56.47;100928.19;1737532;82;21198;-42
2021/03/30 06:07:19;;;;;;;35.00;21.95;;;;;;;7.92;56.20;100934.47;1738011;82;21150;-43
2021/03/30 06:09:47;;;;;;;34.25;22.13;;;;;;;8.00;55.10;100932.40;1737990;82;21194;-42
2021/03/30 06:12:16;;;;;;;36.40;23.32;;;;;;;8.07;54.17;100931.44;1737943;82;21162;-43
2021/03/30 06:14:48;;;;;;;37.30;23.55;;;;;;;8.15;53.76;100934.77;1738148;82;21130;-43
2021/03/30 06:17:17;;;;;;;37.08;23.65;;;;;;;8.21;53.79;100926.80;1738058;82;21635;-42
2021/03/30 06:19:56;;;;;;;36.68;23.70;;;;;;;8.30;53.73;100932.30;1738087;82;21102;-43
2021/03/30 06:22:26;;;;;;;38.90;21.47;;;;;;;8.39;53.14;100936.41;1738222;82;21115;-42
2021/03/30 06:24:55;;;;;;;34.27;21.23;;;;;;;8.43;51.96;100929.28;1738067;82;21253;-43
2021/03/30 06:27:30;;;;;;;33.18;20.17;;;;;;;8.48;51.48;100934.57;1738037;82;20997;-43
2021/03/30 06:29:59;;;;;;;31.50;19.57;;;;;;;8.52;50.45;100932.30;1737855;82;21143;-43
2021/03/30 06:32:27;;;;;;;34.15;20.17;;;;;;;8.58;51.03;100934.33;1738346;82;21625;-43
2021/03/30 06:35:13;;;;;;;27.40;16.52;;;;;;;8.66;51.12;100932.26;1738259;82;22236;-43
2021/03/30 06:37:42;;;;;;;31.35;17.55;;;;;;;8.75;49.62;100927.70;1750365;81;21142;-43
2021/03/30 06:40:35;;;;;;;30.85;17.87;;;;;;;8.87;49.12;100931.17;1756965;81;21121;-43
2021/03/30 06:44:24;;;;;;;30.30;17.85;;;;;;;9.01;49.10;100930.53;1755759;81;21405;-43
2021/03/30 06:45:42;;;;;;;31.00;16.52;;;;;;;9.16;48.25;100935.55;1752833;81;21113;-43
2021/03/30 06:48:10;;;;;;;26.77;15.45;;;;;;;9.29;47.92;100936.03;1756865;81;21439;-43
2021/03/30 06:50:38;;;;;;;23.73;13.90;;;;;;;9.41;47.73;100938.13;1756815;81;21616;-43
2021/03/30 06:53:21;;;;;;;23.55;14.15;;;;;;;9.53;46.45;100935.63;1756997;81;21905;-43
2021/03/30 06:55:52;;;;;;;20.35;13.05;;;;;;;9.63;45.04;100935.34;1756871;81;21169;-43
2021/03/30 06:58:22;;;;;;;23.18;15.03;;;;;;;9.75;45.35;100942.30;1757001;81;21171;-43
2021/03/30 07:00:51;;;;;;;20.88;13.43;;;;;;;9.89;44.12;100951.64;1757008;81;22295;-43
2021/03/30 07:03:20;;;;;;;22.98;14.35;;;;;;;9.96;43.72;100956.05;1756839;81;21177;-43
2021/03/30 07:05:53;;;;;;;23.87;14.50;;;;;;;10.02;43.83;100948.79;1727582;81;21168;-43
2021/03/30 07:08:22;;;;;;;24.72;15.23;;;;;;;10.04;43.93;100960.13;1756953;81;21143;-43
2021/03/30 07:10:53;;;;;;;23.07;14.87;;;;;;;10.12;44.50;100955.05;1757006;81;21145;-43
2021/03/30 07:13:23;;;;;;;21.82;14.68;;;;;;;10.25;44.27;100960.89;1756909;81;22236;-43
2021/03/30 07:15:57;;;;;;;24.20;15.98;;;;;;;10.37;43.95;100963.76;1756829;81;21149;-43
2021/03/30 07:18:39;;;;;;;23.60;15.10;;;;;;;10.49;43.69;100954.44;1750908;81;21368;-43
2021/03/30 07:21:20;;;;;;;23.18;14.87;;;;;;;10.62;43.07;100967.03;1726844;83;21149;-43
2021/03/30 07:24:02;;;;;;;23.27;14.45;;;;;;;10.75;42.27;100962.53;1726735;83;21189;-43
2021/03/30 07:26:52;;;;;;;21.40;13.50;;;;;;;10.84;41.74;100965.47;1714912;83;22662;-43
2021/03/30 07:29:29;;;;;;;23.25;14.47;;;;;;;10.59;41.72;100915.35;1726860;83;21139;-43
2021/03/30 07:32:25;;;;;;;24.15;15.10;;;;;;;11.02;41.27;100970.88;1726806;83;21184;-43
2021/03/30 07:35:11;;;;;;;27.50;14.40;;;;;;;11.09;41.41;100958.95;1726795;83;21646;-43
2021/03/30 07:38:04;;;;;;;29.57;15.13;;;;;;;11.27;41.74;100964.59;1717468;83;21185;-43
2021/03/30 07:40:41;;;;;;;21.93;15.43;;;;;;;11.47;41.97;100967.95;1708379;84;21342;-43
2021/03/30 07:43:25;;;;;;;24.00;15.23;;;;;;;11.70;41.37;100966.56;1710905;82;21165;-43
2021/03/30 07:45:59;;;;;;;22.45;15.28;;;;;;;11.88;40.94;100969.20;1738081;82;21574;-43
2021/03/30 07:48:31;;;;;;;24.25;15.45;;;;;;;12.01;40.91;100969.52;1737651;82;21640;-43
2021/03/30 07:53:48;;;;;;;21.10;15.43;;;;;;;12.38;39.60;100961.83;1840763;78;22804;-42
2021/03/30 07:56:28;;;;;;;19.95;13.48;;;;;;;12.46;39.66;100963.67;1816102;79;21008;-43
2021/03/30 07:58:58;;;;;;;20.05;12.85;;;;;;;12.61;39.04;100967.70;1816333;79;21360;-43
2021/03/30 08:01:30;;;;;;;20.30;13.18;;;;;;;12.82;37.13;100966.32;1816130;79;21032;-43
2021/03/30 08:03:59;;;;;;;21.02;12.05;;;;;;;12.96;36.81;100969.54;1816304;79;21600;-43
2021/03/30 08:06:32;;;;;;;18.42;13.22;;;;;;;13.12;36.57;100965.64;1754050;79;21055;-43
2021/03/30 08:09:07;;;;;;;20.80;12.20;;;;;;;13.29;36.24;100961.35;1815358;79;21031;-43
2021/03/30 08:11:47;;;;;;;22.42;13.43;;;;;;;13.43;36.91;100965.34;1815393;79;21031;-43
2021/03/30 08:14:28;;;;;;;17.65;11.63;;;;;;;13.63;35.31;100968.30;1811927;78;21158;-43
2021/03/30 08:16:59;;;;;;;16.12;11.53;;;;;;;13.72;35.70;100968.98;1740633;82;21036;-43
2021/03/30 08:19:29;;;;;;;16.82;11.80;;;;;;;13.83;35.80;100960.58;1668276;82;21183;-43
2021/03/30 08:22:06;;;;;;;19.02;11.50;;;;;;;13.93;34.49;100966.94;1743231;82;21982;-43
2021/03/30 08:24:49;;;;;;;18.12;11.33;;;;;;;13.99;34.44;100969.63;1743103;82;21474;-43
2021/03/30 08:27:37;;;;;;;16.60;10.55;;;;;;;14.05;34.34;100959.29;1739987;81;21218;-43
2021/03/30 08:30:18;;;;;;;15.35;10.68;;;;;;;14.10;33.62;100962.58;1741174;82;21044;-43
2021/03/30 08:32:48;;;;;;;15.83;10.20;;;;;;;14.13;33.63;100961.91;1753856;81;21179;-43
2021/03/30 08:35:34;;;;;;;13.83;9.13;;;;;;;14.15;33.77;100966.44;1741630;81;21796;-43
2021/03/30 08:38:05;;;;;;;15.08;8.63;;;;;;;14.26;32.92;100966.19;1753083;81;21815;-43
2021/03/30 08:40:41;;;;;;;13.58;9.20;;;;;;;14.30;32.88;100968.45;1753090;81;21605;-43
2021/03/30 08:43:19;;;;;;;12.20;8.93;;;;;;;14.37;32.64;100966.54;1754922;80;21174;-43
2021/03/30 08:45:59;;;;;;;11.48;8.30;;;;;;;14.43;32.52;100963.77;1788709;80;21194;-43
2021/03/30 08:48:37;;;;;;;13.85;9.15;;;;;;;14.44;32.42;100968.09;1769271;80;21546;-43
2021/03/30 08:51:08;;;;;;;12.90;9.00;;;;;;;14.48;31.84;100968.19;1716819;82;21209;-43
2021/03/30 08:53:36;;;;;;;12.78;8.85;;;;;;;14.52;31.79;100966.38;1739476;82;21598;-43
2021/03/30 08:56:11;;;;;;;11.12;7.17;;;;;;;14.53;31.82;100957.83;1738291;82;21150;-43
2021/03/30 08:58:48;;;;;;;10.05;7.05;;;;;;;14.51;31.44;100971.61;1727308;82;21708;-43
2021/03/30 09:01:16;;;;;;;11.48;7.78;;;;;;;14.52;31.76;100956.26;1738515;82;21563;-43
2021/03/30 09:03:45;;;;;;;10.13;6.75;;;;;;;14.60;31.59;100959.41;1737790;82;21458;-43
2021/03/30 09:06:42;;;;;;;9.20;7.25;;;;;;;14.75;31.10;100952.41;1686742;81;21179;-43
2021/03/30 09:09:23;;;;;;;13.35;7.65;;;;;;;14.88;31.07;100953.13;1726591;83;21623;-43
2021/03/30 09:11:51;;;;;;;9.55;7.50;;;;;;;14.91;30.75;100954.58;1715494;82;21158;-43
2021/03/30 09:14:21;;;;;;;13.45;8.53;;;;;;;14.97;30.97;100953.19;1733380;82;21185;-43
2021/03/30 09:16:51;;;;;;;13.85;8.48;;;;;;;15.05;31.27;100952.81;1738043;82;21357;-43
2021/03/30 09:19:38;;;;;;;12.37;8.43;;;;;;;15.10;30.72;100951.96;1736410;81;21163;-43
2021/03/30 09:22:02;;;;;;;12.40;8.33;;;;;;;15.16;30.34;100949.20;1752553;81;22105;-43
2021/03/30 09:24:41;;;;;;;10.23;7.85;;;;;;;15.21;30.35;100951.67;1804993;79;21383;-43
2021/03/30 09:27:04;;;;;;;12.55;8.15;;;;;;;15.25;30.52;100949.63;1796572;79;21197;-43
2021/03/30 09:29:38;;;;;;;;;;;;;;;15.37;30.39;100949.52;1803447;79;21337;-43
2021/03/30 09:32:08;;;;;;;14.47;9.08;;;;;;;15.49;30.01;100943.38;1802217;79;20212;-43
2021/03/30 09:34:43;;;;;;;15.95;8.63;;;;;;;15.44;30.30;100944.25;1765617;80;21037;-43
2021/03/30 09:37:11;;;;;;;13.70;8.95;;;;;;;15.56;30.37;100939.49;1794830;78;21018;-43
2021/03/30 09:39:40;;;;;;;13.10;9.53;;;;;;;15.68;30.16;100945.44;1807069;79;21187;-43
2021/03/30 09:42:09;;;;;;;14.30;9.48;;;;;;;15.80;29.96;100937.12;1801941;79;21186;-43
2021/03/30 09:44:44;;;;;;;14.20;9.20;;;;;;;16.01;30.23;100936.81;1782889;79;21020;-43
2021/03/30 09:47:13;;;;;;;14.33;9.00;;;;;;;16.26;29.46;100931.30;1780583;79;21562;-43
2021/03/30 09:49:43;;;;;;;14.28;10.05;;;;;;;16.48;28.87;100937.98;1799228;79;21222;-43
2021/03/30 09:52:13;;;;;;;15.13;9.47;;;;;;;16.21;29.27;100870.59;1803804;78;21187;-43
2021/03/30 09:54:43;;;;;;;14.68;10.05;;;;;;;16.79;29.43;100932.96;1737686;81;21618;-43
2021/03/30 09:57:17;;;;;;;15.28;10.00;;;;;;;17.07;28.73;100932.68;1799762;78;21629;-43
2021/03/30 09:59:46;;;;;;;14.83;9.33;;;;;;;17.15;28.13;100930.27;1737938;82;21088;-43
2021/03/30 10:02:19;;;;;;;17.35;10.43;;;;;;;17.00;28.75;100925.69;1792492;79;21190;-43
2021/03/30 10:04:55;;;;;;;12.37;9.23;;;;;;;16.85;29.35;100932.28;1709080;82;21641;-43
2021/03/30 10:07:24;;;;;;;13.25;9.18;;;;;;;16.88;28.92;100930.20;1805955;79;21364;-43
2021/03/30 10:10:07;;;;;;;13.95;9.15;;;;;;;16.99;28.95;100926.30;1740131;82;21381;-43
2021/03/30 10:13:03;;;;;;;16.10;10.28;;;;;;;17.26;28.94;100923.02;1772435;81;21616;-43
2021/03/30 10:15:36;;;;;;;13.58;10.15;;;;;;;17.58;28.87;100916.67;1771042;80;21645;-43
2021/03/30 10:18:06;;;;;;;16.90;10.55;;;;;;;17.81;28.47;100916.09;1772437;81;21139;-43
2021/03/30 10:20:44;;;;;;;14.98;10.05;;;;;;;17.94;27.94;100912.53;1772355;81;21617;-43
2021/03/30 10:23:24;;;;;;;13.98;9.93;;;;;;;17.98;28.29;100910.05;1765142;81;21028;-43
2021/03/30 10:25:53;;;;;;;13.70;10.20;;;;;;;18.06;28.11;100912.29;1772316;81;21207;-43
2021/03/30 10:28:30;;;;;;;16.25;10.15;;;;;;;18.04;27.70;100903.08;1772246;81;21381;-43
2021/03/30 10:31:05;;;;;;;17.67;11.30;;;;;;;17.95;28.48;100896.28;1772419;81;21139;-43
2021/03/30 10:33:36;;;;;;;16.05;11.28;;;;;;;17.94;28.14;100894.70;1793252;79;21209;-41
2021/03/30 10:36:09;;;;;;;14.98;12.50;;;;;;;17.90;27.85;100889.17;1807265;79;21103;-42
2021/03/30 10:38:46;;;;;;;17.15;12.53;;;;;;;17.77;28.14;100903.67;1807160;79;21148;-42
2021/03/30 10:41:27;;;;;;;17.17;11.70;;;;;;;17.73;28.80;100893.23;1828094;77;22723;-42
2021/03/30 10:43:58;;;;;;;19.75;12.45;;;;;;;17.60;28.58;100894.62;1800734;77;21356;-42
2021/03/30 10:46:26;;;;;;;17.17;12.70;;;;;;;17.51;29.07;100893.27;1797014;79;21295;-42
2021/03/30 10:49:01;;;;;;;16.80;12.70;;;;;;;17.51;28.80;100894.06;1808984;78;21031;-43
2021/03/30 10:51:31;;;;;;;16.93;12.55;;;;;;;17.58;28.28;100886.50;1747160;81;21492;-42
2021/03/30 10:54:00;;;;;;;18.02;12.40;;;;;;;17.66;28.48;100884.13;1747796;81;21326;-42
2021/03/30 10:56:30;;;;;;;17.12;12.33;;;;;;;17.65;28.36;100889.39;1771048;80;21033;-42
2021/03/30 10:58:57;;;;;;;15.90;12.23;;;;;;;17.69;28.34;100885.54;1753053;81;21368;-43
2021/03/30 11:01:26;;;;;;;17.30;13.03;;;;;;;17.85;28.62;100890.06;1752835;81;20992;-42
2021/03/30 11:03:54;;;;;;;14.87;11.80;;;;;;;17.99;28.70;100875.16;1771240;81;21581;-43
2021/03/30 11:06:22;;;;;;;17.25;13.45;;;;;;;18.17;28.77;100883.83;1752816;81;21175;-42
2021/03/30 11:08:50;;;;;;;14.73;12.65;;;;;;;18.33;28.06;100885.58;1753013;81;21186;-43
2021/03/30 11:11:18;;;;;;;20.40;13.83;;;;;;;18.25;27.97;100876.45;1770993;81;21278;-43
2021/03/30 11:13:48;;;;;;;16.27;13.08;;;;;;;18.21;27.97;100883.28;1753181;81;21185;-43
2021/03/30 11:16:16;;;;;;;20.65;13.75;;;;;;;18.13;27.81;100878.09;1752797;81;21059;-43
2021/03/30 11:18:45;;;;;;;18.27;14.03;;;;;;;18.05;28.09;100879.97;1771127;81;21056;-43
2021/03/30 11:21:13;;;;;;;17.55;12.50;;;;;;;18.06;28.54;100885.64;1752764;81;21210;-43
2021/03/30 11:23:43;;;;;;;17.73;12.95;;;;;;;18.17;28.37;100881.08;1753037;81;21193;-43
2021/03/30 11:26:14;;;;;;;17.65;13.35;;;;;;;18.42;27.98;100884.13;1770925;81;21131;-42
2021/03/30 11:28:45;;;;;;;18.15;12.80;;;;;;;18.68;28.06;100876.98;1752914;81;21180;-42
2021/03/30 11:34:18;;;;;;;17.62;13.18;;;;;;;18.78;27.65;100880.42;1740785;82;21158;-42
2021/03/30 11:36:31;;;;;;;17.17;12.85;;;;;;;18.74;27.40;100865.83;1736465;82;21544;-43
2021/03/30 11:39:01;;;;;;;19.12;13.58;;;;;;;18.83;27.74;100867.09;1748229;81;21150;-43
2021/03/30 11:41:29;;;;;;;17.57;12.35;;;;;;;19.03;27.32;100869.05;1747883;81;21398;-43
2021/03/30 11:43:58;;;;;;;21.35;15.23;;;;;;;19.10;27.29;100864.99;1732137;82;21169;-43
2021/03/30 11:46:26;;;;;;;20.30;14.18;;;;;;;18.72;27.39;100866.23;1715233;83;21550;-42
2021/03/30 11:48:55;;;;;;;18.65;13.88;;;;;;;18.27;28.15;100862.36;1715242;83;21367;-43